In Rescue
 
Open Full Screen Window  High Contrast Mode
Wind Gusting 00 knots
03
October 25, 2021 5:27 PM EDT
Weather Information
Wind Direction
  220 °
Wind Speed
  03 kt (3 mph)
Wind Gust
  00 kt (0 mph)
Altimeter
29.67 in
Visibility
10 SM
Temperature
17° C
63° F
Dewpoint
10° C
50° F
Humidity
64%
1hr Rain Fall
00.00 in.
24hr Rain Fall
00.10 in.
Sky Condition
Overcast @ 4,200 ft
Scattered @ 3,300 ft
VFR

METAR KPOV 252127Z AUTO 22003KT 10SM SCT033 OVC042 17/10 A2967 RMK AO2 T01700104 PWINO

FAA Disclaimer: The data displayed is for advisory purposes only and is not to be used for flight planning or operations.